sensor_id;sensor_type;location;lat;lon;timestamp;P1;durP1;ratioP1;P2;durP2;ratioP2
26151;SDS011;13907;53.154;8.202;2022-08-03T00:00:19;0.95;;;0.88;;
26151;SDS011;13907;53.154;8.202;2022-08-03T00:02:48;1.38;;;0.93;;
26151;SDS011;13907;53.154;8.202;2022-08-03T00:05:16;3.38;;;1.10;;
26151;SDS011;13907;53.154;8.202;2022-08-03T00:07:43;1.00;;;0.95;;
26151;SDS011;13907;53.154;8.202;2022-08-03T00:10:11;4.35;;;0.95;;
26151;SDS011;13907;53.154;8.202;2022-08-03T00:12:38;0.95;;;0.95;;
26151;SDS011;13907;53.154;8.202;2022-08-03T00:15:05;0.73;;;0.70;;
26151;SDS011;13907;53.154;8.202;2022-08-03T00:17:33;3.58;;;0.88;;
26151;SDS011;13907;53.154;8.202;2022-08-03T00:20:00;4.28;;;0.63;;
26151;SDS011;13907;53.154;8.202;2022-08-03T00:22:28;0.75;;;0.75;;
26151;SDS011;13907;53.154;8.202;2022-08-03T00:24:55;1.63;;;0.80;;
26151;SDS011;13907;53.154;8.202;2022-08-03T00:27:22;2.78;;;0.80;;
26151;SDS011;13907;53.154;8.202;2022-08-03T00:29:50;2.10;;;1.00;;
26151;SDS011;13907;53.154;8.202;2022-08-03T00:32:17;1.00;;;0.90;;
26151;SDS011;13907;53.154;8.202;2022-08-03T00:34:45;1.23;;;1.00;;
26151;SDS011;13907;53.154;8.202;2022-08-03T00:37:12;0.70;;;0.70;;
26151;SDS011;13907;53.154;8.202;2022-08-03T00:39:40;4.13;;;1.23;;
26151;SDS011;13907;53.154;8.202;2022-08-03T00:42:09;1.40;;;0.85;;
26151;SDS011;13907;53.154;8.202;2022-08-03T00:44:38;1.02;;;0.73;;
26151;SDS011;13907;53.154;8.202;2022-08-03T00:47:05;0.70;;;0.70;;
26151;SDS011;13907;53.154;8.202;2022-08-03T00:49:32;0.80;;;0.73;;
26151;SDS011;13907;53.154;8.202;2022-08-03T00:51:59;2.85;;;1.02;;
26151;SDS011;13907;53.154;8.202;2022-08-03T00:54:26;1.45;;;0.80;;
26151;SDS011;13907;53.154;8.202;2022-08-03T00:56:55;2.08;;;1.20;;
26151;SDS011;13907;53.154;8.202;2022-08-03T00:59:22;0.88;;;0.88;;
26151;SDS011;13907;53.154;8.202;2022-08-03T01:01:49;1.88;;;1.00;;
26151;SDS011;13907;53.154;8.202;2022-08-03T01:04:16;0.70;;;0.68;;
26151;SDS011;13907;53.154;8.202;2022-08-03T01:06:45;1.13;;;0.77;;
26151;SDS011;13907;53.154;8.202;2022-08-03T01:09:16;0.73;;;0.60;;
26151;SDS011;13907;53.154;8.202;2022-08-03T01:11:46;0.98;;;0.70;;
26151;SDS011;13907;53.154;8.202;2022-08-03T01:14:20;0.90;;;0.90;;
26151;SDS011;13907;53.154;8.202;2022-08-03T01:16:51;1.98;;;0.75;;
26151;SDS011;13907;53.154;8.202;2022-08-03T01:19:35;1.52;;;0.80;;
26151;SDS011;13907;53.154;8.202;2022-08-03T01:22:09;1.15;;;0.88;;
26151;SDS011;13907;53.154;8.202;2022-08-03T01:24:43;1.80;;;0.95;;
26151;SDS011;13907;53.154;8.202;2022-08-03T01:27:13;0.85;;;0.85;;
26151;SDS011;13907;53.154;8.202;2022-08-03T01:29:48;1.55;;;0.85;;
26151;SDS011;13907;53.154;8.202;2022-08-03T01:32:17;1.42;;;0.80;;
26151;SDS011;13907;53.154;8.202;2022-08-03T01:34:46;1.10;;;1.00;;
26151;SDS011;13907;53.154;8.202;2022-08-03T01:37:14;2.33;;;1.00;;
26151;SDS011;13907;53.154;8.202;2022-08-03T01:39:42;1.45;;;1.20;;
26151;SDS011;13907;53.154;8.202;2022-08-03T01:42:10;1.35;;;1.02;;
26151;SDS011;13907;53.154;8.202;2022-08-03T01:44:39;1.42;;;1.20;;
26151;SDS011;13907;53.154;8.202;2022-08-03T01:47:08;1.33;;;1.00;;
26151;SDS011;13907;53.154;8.202;2022-08-03T01:49:37;1.23;;;0.95;;
26151;SDS011;13907;53.154;8.202;2022-08-03T01:52:05;2.20;;;0.93;;
26151;SDS011;13907;53.154;8.202;2022-08-03T01:54:35;0.98;;;0.90;;
26151;SDS011;13907;53.154;8.202;2022-08-03T01:57:02;1.10;;;1.00;;
26151;SDS011;13907;53.154;8.202;2022-08-03T01:59:30;1.15;;;0.95;;
26151;SDS011;13907;53.154;8.202;2022-08-03T02:01:58;0.95;;;0.85;;
26151;SDS011;13907;53.154;8.202;2022-08-03T02:04:27;1.23;;;0.88;;
26151;SDS011;13907;53.154;8.202;2022-08-03T02:06:54;1.02;;;0.82;;
26151;SDS011;13907;53.154;8.202;2022-08-03T02:09:22;0.90;;;0.90;;
26151;SDS011;13907;53.154;8.202;2022-08-03T02:11:51;1.20;;;0.90;;
26151;SDS011;13907;53.154;8.202;2022-08-03T02:14:19;1.10;;;1.00;;
26151;SDS011;13907;53.154;8.202;2022-08-03T02:16:46;0.98;;;0.80;;
26151;SDS011;13907;53.154;8.202;2022-08-03T02:19:14;0.60;;;0.57;;
26151;SDS011;13907;53.154;8.202;2022-08-03T02:21:44;0.80;;;0.80;;
26151;SDS011;13907;53.154;8.202;2022-08-03T02:24:12;0.93;;;0.82;;
26151;SDS011;13907;53.154;8.202;2022-08-03T02:26:39;0.82;;;0.82;;
26151;SDS011;13907;53.154;8.202;2022-08-03T02:29:10;0.82;;;0.80;;
26151;SDS011;13907;53.154;8.202;2022-08-03T02:31:39;2.22;;;1.20;;
26151;SDS011;13907;53.154;8.202;2022-08-03T02:34:07;0.80;;;0.80;;
26151;SDS011;13907;53.154;8.202;2022-08-03T02:36:36;2.28;;;1.10;;
26151;SDS011;13907;53.154;8.202;2022-08-03T02:39:06;1.05;;;0.95;;
26151;SDS011;13907;53.154;8.202;2022-08-03T02:41:36;1.13;;;1.05;;
26151;SDS011;13907;53.154;8.202;2022-08-03T02:44:06;1.20;;;1.10;;
26151;SDS011;13907;53.154;8.202;2022-08-03T02:46:35;1.08;;;0.90;;
26151;SDS011;13907;53.154;8.202;2022-08-03T02:49:02;1.30;;;0.93;;
26151;SDS011;13907;53.154;8.202;2022-08-03T02:51:31;1.27;;;1.02;;
26151;SDS011;13907;53.154;8.202;2022-08-03T02:53:59;0.85;;;0.80;;
26151;SDS011;13907;53.154;8.202;2022-08-03T02:56:28;1.20;;;1.05;;
26151;SDS011;13907;53.154;8.202;2022-08-03T02:58:56;1.45;;;1.15;;
26151;SDS011;13907;53.154;8.202;2022-08-03T03:01:24;1.23;;;1.00;;
26151;SDS011;13907;53.154;8.202;2022-08-03T03:03:52;1.52;;;0.90;;
26151;SDS011;13907;53.154;8.202;2022-08-03T03:06:20;1.85;;;1.17;;
26151;SDS011;13907;53.154;8.202;2022-08-03T03:08:48;1.60;;;1.38;;
26151;SDS011;13907;53.154;8.202;2022-08-03T03:11:16;1.02;;;0.90;;
26151;SDS011;13907;53.154;8.202;2022-08-03T03:13:45;1.50;;;1.17;;
26151;SDS011;13907;53.154;8.202;2022-08-03T03:16:14;1.40;;;1.10;;
26151;SDS011;13907;53.154;8.202;2022-08-03T03:18:42;1.83;;;1.50;;
26151;SDS011;13907;53.154;8.202;2022-08-03T03:21:10;1.02;;;1.00;;
26151;SDS011;13907;53.154;8.202;2022-08-03T03:23:38;3.10;;;1.05;;
26151;SDS011;13907;53.154;8.202;2022-08-03T03:26:06;1.17;;;1.05;;
26151;SDS011;13907;53.154;8.202;2022-08-03T03:28:33;1.67;;;1.27;;
26151;SDS011;13907;53.154;8.202;2022-08-03T03:31:04;2.63;;;1.30;;
26151;SDS011;13907;53.154;8.202;2022-08-03T03:33:31;1.30;;;1.20;;
26151;SDS011;13907;53.154;8.202;2022-08-03T03:35:59;1.30;;;1.20;;
26151;SDS011;13907;53.154;8.202;2022-08-03T03:38:26;1.42;;;1.23;;
26151;SDS011;13907;53.154;8.202;2022-08-03T03:40:53;1.20;;;1.10;;
26151;SDS011;13907;53.154;8.202;2022-08-03T03:43:21;3.75;;;1.48;;
26151;SDS011;13907;53.154;8.202;2022-08-03T03:45:48;1.73;;;0.93;;
26151;SDS011;13907;53.154;8.202;2022-08-03T03:48:18;1.92;;;1.40;;
26151;SDS011;13907;53.154;8.202;2022-08-03T03:50:46;1.77;;;1.33;;
26151;SDS011;13907;53.154;8.202;2022-08-03T03:53:15;3.08;;;1.63;;
26151;SDS011;13907;53.154;8.202;2022-08-03T03:55:42;2.08;;;1.50;;
26151;SDS011;13907;53.154;8.202;2022-08-03T03:58:09;2.03;;;1.63;;
26151;SDS011;13907;53.154;8.202;2022-08-03T04:00:36;3.88;;;1.92;;
26151;SDS011;13907;53.154;8.202;2022-08-03T04:03:03;2.33;;;1.58;;
26151;SDS011;13907;53.154;8.202;2022-08-03T04:05:32;2.30;;;1.73;;
26151;SDS011;13907;53.154;8.202;2022-08-03T04:08:17;1.50;;;1.40;;
26151;SDS011;13907;53.154;8.202;2022-08-03T04:11:06;1.55;;;1.23;;
26151;SDS011;13907;53.154;8.202;2022-08-03T04:13:36;1.67;;;1.30;;
26151;SDS011;13907;53.154;8.202;2022-08-03T04:16:03;1.95;;;1.38;;
26151;SDS011;13907;53.154;8.202;2022-08-03T04:18:33;2.90;;;1.52;;
26151;SDS011;13907;53.154;8.202;2022-08-03T04:21:02;1.77;;;1.30;;
26151;SDS011;13907;53.154;8.202;2022-08-03T04:23:32;2.95;;;1.60;;
26151;SDS011;13907;53.154;8.202;2022-08-03T04:26:00;3.03;;;1.70;;
26151;SDS011;13907;53.154;8.202;2022-08-03T04:28:28;1.75;;;1.23;;
26151;SDS011;13907;53.154;8.202;2022-08-03T04:30:56;1.63;;;1.45;;
26151;SDS011;13907;53.154;8.202;2022-08-03T04:33:24;2.35;;;1.48;;
26151;SDS011;13907;53.154;8.202;2022-08-03T04:35:52;2.10;;;1.75;;
26151;SDS011;13907;53.154;8.202;2022-08-03T04:38:22;1.88;;;1.55;;
26151;SDS011;13907;53.154;8.202;2022-08-03T04:40:50;2.30;;;1.73;;
26151;SDS011;13907;53.154;8.202;2022-08-03T04:43:18;3.90;;;1.77;;
26151;SDS011;13907;53.154;8.202;2022-08-03T04:45:48;1.98;;;1.50;;
26151;SDS011;13907;53.154;8.202;2022-08-03T04:48:15;2.72;;;1.58;;
26151;SDS011;13907;53.154;8.202;2022-08-03T04:50:44;2.72;;;1.90;;
26151;SDS011;13907;53.154;8.202;2022-08-03T04:53:12;2.00;;;1.55;;
26151;SDS011;13907;53.154;8.202;2022-08-03T04:55:40;2.13;;;1.77;;
26151;SDS011;13907;53.154;8.202;2022-08-03T04:58:07;2.03;;;1.83;;
26151;SDS011;13907;53.154;8.202;2022-08-03T05:00:34;4.00;;;2.60;;
26151;SDS011;13907;53.154;8.202;2022-08-03T05:03:02;3.20;;;2.22;;
26151;SDS011;13907;53.154;8.202;2022-08-03T05:05:29;2.60;;;1.95;;
26151;SDS011;13907;53.154;8.202;2022-08-03T05:07:56;2.97;;;2.25;;
26151;SDS011;13907;53.154;8.202;2022-08-03T05:10:23;3.10;;;2.25;;
26151;SDS011;13907;53.154;8.202;2022-08-03T05:12:51;3.45;;;2.17;;
26151;SDS011;13907;53.154;8.202;2022-08-03T05:15:19;5.28;;;2.17;;
26151;SDS011;13907;53.154;8.202;2022-08-03T05:17:46;2.38;;;2.10;;
26151;SDS011;13907;53.154;8.202;2022-08-03T05:20:13;3.72;;;2.30;;
26151;SDS011;13907;53.154;8.202;2022-08-03T05:22:40;4.57;;;2.83;;
26151;SDS011;13907;53.154;8.202;2022-08-03T05:25:07;2.97;;;2.45;;
26151;SDS011;13907;53.154;8.202;2022-08-03T05:27:34;3.05;;;2.55;;
26151;SDS011;13907;53.154;8.202;2022-08-03T05:30:03;4.75;;;2.53;;
26151;SDS011;13907;53.154;8.202;2022-08-03T05:32:30;3.17;;;2.42;;
26151;SDS011;13907;53.154;8.202;2022-08-03T05:34:57;2.47;;;2.05;;
26151;SDS011;13907;53.154;8.202;2022-08-03T05:37:25;4.13;;;2.40;;
26151;SDS011;13907;53.154;8.202;2022-08-03T05:39:52;3.53;;;1.90;;
26151;SDS011;13907;53.154;8.202;2022-08-03T05:42:19;3.40;;;2.00;;
26151;SDS011;13907;53.154;8.202;2022-08-03T05:44:46;4.07;;;2.15;;
26151;SDS011;13907;53.154;8.202;2022-08-03T05:47:14;3.08;;;1.85;;
26151;SDS011;13907;53.154;8.202;2022-08-03T05:49:41;4.25;;;2.63;;
26151;SDS011;13907;53.154;8.202;2022-08-03T05:52:08;3.90;;;1.95;;
26151;SDS011;13907;53.154;8.202;2022-08-03T05:54:36;2.45;;;1.83;;
26151;SDS011;13907;53.154;8.202;2022-08-03T05:57:03;2.50;;;1.60;;
26151;SDS011;13907;53.154;8.202;2022-08-03T05:59:30;3.20;;;1.70;;
26151;SDS011;13907;53.154;8.202;2022-08-03T06:01:57;5.05;;;1.90;;
26151;SDS011;13907;53.154;8.202;2022-08-03T06:04:25;4.72;;;1.50;;
26151;SDS011;13907;53.154;8.202;2022-08-03T06:06:52;1.40;;;1.20;;
26151;SDS011;13907;53.154;8.202;2022-08-03T06:09:20;2.38;;;1.25;;
26151;SDS011;13907;53.154;8.202;2022-08-03T06:11:48;3.55;;;1.50;;
26151;SDS011;13907;53.154;8.202;2022-08-03T06:14:15;1.42;;;1.30;;
26151;SDS011;13907;53.154;8.202;2022-08-03T06:16:42;4.63;;;1.63;;
26151;SDS011;13907;53.154;8.202;2022-08-03T06:19:09;2.28;;;1.30;;
26151;SDS011;13907;53.154;8.202;2022-08-03T06:21:37;1.63;;;1.50;;
26151;SDS011;13907;53.154;8.202;2022-08-03T06:24:05;6.82;;;1.45;;
26151;SDS011;13907;53.154;8.202;2022-08-03T06:26:32;4.63;;;1.80;;
26151;SDS011;13907;53.154;8.202;2022-08-03T06:28:59;3.35;;;1.30;;
26151;SDS011;13907;53.154;8.202;2022-08-03T06:31:27;2.20;;;1.05;;
26151;SDS011;13907;53.154;8.202;2022-08-03T06:33:54;2.70;;;1.40;;
26151;SDS011;13907;53.154;8.202;2022-08-03T06:36:21;2.08;;;1.50;;
26151;SDS011;13907;53.154;8.202;2022-08-03T06:38:51;2.15;;;1.35;;
26151;SDS011;13907;53.154;8.202;2022-08-03T06:41:18;5.75;;;1.60;;
26151;SDS011;13907;53.154;8.202;2022-08-03T06:43:45;2.00;;;1.20;;
26151;SDS011;13907;53.154;8.202;2022-08-03T06:46:12;4.97;;;1.27;;
26151;SDS011;13907;53.154;8.202;2022-08-03T06:48:40;2.85;;;1.40;;
26151;SDS011;13907;53.154;8.202;2022-08-03T06:51:07;6.97;;;1.70;;
26151;SDS011;13907;53.154;8.202;2022-08-03T06:53:34;2.92;;;1.65;;
26151;SDS011;13907;53.154;8.202;2022-08-03T06:56:04;1.88;;;1.35;;
26151;SDS011;13907;53.154;8.202;2022-08-03T06:58:32;4.75;;;1.40;;
26151;SDS011;13907;53.154;8.202;2022-08-03T07:00:59;2.17;;;1.42;;
26151;SDS011;13907;53.154;8.202;2022-08-03T07:03:26;1.73;;;1.10;;
26151;SDS011;13907;53.154;8.202;2022-08-03T07:05:53;3.25;;;1.40;;
26151;SDS011;13907;53.154;8.202;2022-08-03T07:08:21;1.50;;;1.10;;
26151;SDS011;13907;53.154;8.202;2022-08-03T07:10:48;1.70;;;0.90;;
26151;SDS011;13907;53.154;8.202;2022-08-03T07:13:16;2.03;;;1.10;;
26151;SDS011;13907;53.154;8.202;2022-08-03T07:15:43;2.42;;;1.48;;
26151;SDS011;13907;53.154;8.202;2022-08-03T07:18:10;2.30;;;1.17;;
26151;SDS011;13907;53.154;8.202;2022-08-03T07:20:38;1.73;;;1.15;;
26151;SDS011;13907;53.154;8.202;2022-08-03T07:23:05;1.55;;;1.00;;
26151;SDS011;13907;53.154;8.202;2022-08-03T07:25:33;1.80;;;1.02;;
26151;SDS011;13907;53.154;8.202;2022-08-03T07:28:00;4.22;;;1.30;;
26151;SDS011;13907;53.154;8.202;2022-08-03T07:30:29;1.95;;;0.93;;
26151;SDS011;13907;53.154;8.202;2022-08-03T07:32:56;1.88;;;1.02;;
26151;SDS011;13907;53.154;8.202;2022-08-03T07:35:23;3.70;;;1.00;;
26151;SDS011;13907;53.154;8.202;2022-08-03T07:37:51;2.88;;;1.35;;
26151;SDS011;13907;53.154;8.202;2022-08-03T07:40:18;3.53;;;1.20;;
26151;SDS011;13907;53.154;8.202;2022-08-03T07:42:45;3.35;;;1.17;;
26151;SDS011;13907;53.154;8.202;2022-08-03T07:45:12;1.75;;;1.30;;
26151;SDS011;13907;53.154;8.202;2022-08-03T07:47:40;4.07;;;1.42;;
26151;SDS011;13907;53.154;8.202;2022-08-03T07:50:07;5.75;;;1.58;;
26151;SDS011;13907;53.154;8.202;2022-08-03T07:52:35;4.32;;;0.90;;
26151;SDS011;13907;53.154;8.202;2022-08-03T07:55:15;1.63;;;0.80;;
26151;SDS011;13907;53.154;8.202;2022-08-03T07:57:43;2.42;;;0.82;;
26151;SDS011;13907;53.154;8.202;2022-08-03T08:00:12;1.10;;;0.73;;
26151;SDS011;13907;53.154;8.202;2022-08-03T08:02:41;1.38;;;1.00;;
26151;SDS011;13907;53.154;8.202;2022-08-03T08:05:08;4.90;;;1.20;;
26151;SDS011;13907;53.154;8.202;2022-08-03T08:07:36;2.10;;;1.23;;
26151;SDS011;13907;53.154;8.202;2022-08-03T08:10:04;2.00;;;0.98;;
26151;SDS011;13907;53.154;8.202;2022-08-03T08:12:31;1.50;;;0.88;;
26151;SDS011;13907;53.154;8.202;2022-08-03T08:14:58;3.42;;;1.10;;
26151;SDS011;13907;53.154;8.202;2022-08-03T08:17:25;7.80;;;1.60;;
26151;SDS011;13907;53.154;8.202;2022-08-03T08:19:54;3.88;;;1.05;;
26151;SDS011;13907;53.154;8.202;2022-08-03T08:22:21;1.30;;;0.85;;
26151;SDS011;13907;53.154;8.202;2022-08-03T08:24:48;2.15;;;0.85;;
26151;SDS011;13907;53.154;8.202;2022-08-03T08:27:16;5.90;;;1.17;;
26151;SDS011;13907;53.154;8.202;2022-08-03T08:29:43;0.88;;;0.80;;
26151;SDS011;13907;53.154;8.202;2022-08-03T08:32:10;1.17;;;0.90;;
26151;SDS011;13907;53.154;8.202;2022-08-03T08:34:39;2.35;;;1.15;;
26151;SDS011;13907;53.154;8.202;2022-08-03T08:37:07;2.55;;;0.95;;
26151;SDS011;13907;53.154;8.202;2022-08-03T08:39:34;1.85;;;0.70;;
26151;SDS011;13907;53.154;8.202;2022-08-03T08:42:02;1.40;;;0.88;;
26151;SDS011;13907;53.154;8.202;2022-08-03T08:44:29;1.45;;;0.55;;
26151;SDS011;13907;53.154;8.202;2022-08-03T08:46:56;2.45;;;1.17;;
26151;SDS011;13907;53.154;8.202;2022-08-03T08:49:23;3.47;;;1.15;;
26151;SDS011;13907;53.154;8.202;2022-08-03T08:51:53;2.13;;;0.82;;
26151;SDS011;13907;53.154;8.202;2022-08-03T08:54:22;2.95;;;0.93;;
26151;SDS011;13907;53.154;8.202;2022-08-03T08:56:49;3.17;;;0.63;;
26151;SDS011;13907;53.154;8.202;2022-08-03T08:59:17;2.88;;;0.75;;
26151;SDS011;13907;53.154;8.202;2022-08-03T09:01:44;1.50;;;0.63;;
26151;SDS011;13907;53.154;8.202;2022-08-03T09:04:11;1.85;;;1.05;;
26151;SDS011;13907;53.154;8.202;2022-08-03T09:06:39;1.60;;;0.60;;
26151;SDS011;13907;53.154;8.202;2022-08-03T09:09:06;3.35;;;1.05;;
26151;SDS011;13907;53.154;8.202;2022-08-03T09:11:34;1.48;;;0.73;;
26151;SDS011;13907;53.154;8.202;2022-08-03T09:14:01;3.17;;;0.85;;
26151;SDS011;13907;53.154;8.202;2022-08-03T09:16:28;2.40;;;0.60;;
26151;SDS011;13907;53.154;8.202;2022-08-03T09:18:55;2.92;;;0.75;;
26151;SDS011;13907;53.154;8.202;2022-08-03T09:21:36;1.30;;;0.70;;
26151;SDS011;13907;53.154;8.202;2022-08-03T09:24:04;2.10;;;0.90;;
26151;SDS011;13907;53.154;8.202;2022-08-03T09:26:32;2.35;;;0.70;;
26151;SDS011;13907;53.154;8.202;2022-08-03T09:29:01;5.03;;;0.80;;
26151;SDS011;13907;53.154;8.202;2022-08-03T09:31:28;2.80;;;0.88;;
26151;SDS011;13907;53.154;8.202;2022-08-03T09:33:56;5.63;;;1.10;;
26151;SDS011;13907;53.154;8.202;2022-08-03T09:36:34;2.08;;;0.50;;
26151;SDS011;13907;53.154;8.202;2022-08-03T09:39:02;2.28;;;0.93;;
26151;SDS011;13907;53.154;8.202;2022-08-03T09:41:30;2.30;;;0.88;;
26151;SDS011;13907;53.154;8.202;2022-08-03T09:43:58;1.88;;;0.65;;
26151;SDS011;13907;53.154;8.202;2022-08-03T09:46:26;4.45;;;0.63;;
26151;SDS011;13907;53.154;8.202;2022-08-03T09:49:07;0.73;;;0.73;;
26151;SDS011;13907;53.154;8.202;2022-08-03T09:51:35;0.57;;;0.40;;
26151;SDS011;13907;53.154;8.202;2022-08-03T09:54:02;1.95;;;1.00;;
26151;SDS011;13907;53.154;8.202;2022-08-03T09:56:39;4.82;;;0.88;;
26151;SDS011;13907;53.154;8.202;2022-08-03T09:59:06;3.67;;;1.08;;
26151;SDS011;13907;53.154;8.202;2022-08-03T10:01:35;1.73;;;0.73;;
26151;SDS011;13907;53.154;8.202;2022-08-03T10:04:05;3.13;;;0.88;;
26151;SDS011;13907;53.154;8.202;2022-08-03T10:06:37;2.63;;;1.58;;
26151;SDS011;13907;53.154;8.202;2022-08-03T10:09:05;2.28;;;0.60;;
26151;SDS011;13907;53.154;8.202;2022-08-03T10:11:33;0.75;;;0.47;;
26151;SDS011;13907;53.154;8.202;2022-08-03T10:14:01;3.50;;;0.82;;
26151;SDS011;13907;53.154;8.202;2022-08-03T10:16:29;3.45;;;1.15;;
26151;SDS011;13907;53.154;8.202;2022-08-03T10:19:00;2.90;;;0.57;;
26151;SDS011;13907;53.154;8.202;2022-08-03T10:21:27;1.20;;;0.45;;
26151;SDS011;13907;53.154;8.202;2022-08-03T10:23:58;4.18;;;0.90;;
26151;SDS011;13907;53.154;8.202;2022-08-03T10:26:25;2.40;;;0.90;;
26151;SDS011;13907;53.154;8.202;2022-08-03T10:28:53;1.50;;;1.10;;
26151;SDS011;13907;53.154;8.202;2022-08-03T10:31:21;2.42;;;0.80;;
26151;SDS011;13907;53.154;8.202;2022-08-03T10:33:50;2.78;;;0.95;;
26151;SDS011;13907;53.154;8.202;2022-08-03T10:36:19;2.40;;;0.60;;
26151;SDS011;13907;53.154;8.202;2022-08-03T10:38:48;4.05;;;0.75;;
26151;SDS011;13907;53.154;8.202;2022-08-03T10:41:17;3.88;;;1.25;;
26151;SDS011;13907;53.154;8.202;2022-08-03T10:43:46;0.93;;;0.52;;
26151;SDS011;13907;53.154;8.202;2022-08-03T10:46:14;1.23;;;0.45;;
26151;SDS011;13907;53.154;8.202;2022-08-03T10:48:41;2.22;;;0.52;;
26151;SDS011;13907;53.154;8.202;2022-08-03T10:51:09;2.45;;;0.77;;
26151;SDS011;13907;53.154;8.202;2022-08-03T10:53:38;8.85;;;1.65;;
26151;SDS011;13907;53.154;8.202;2022-08-03T10:56:19;1.92;;;1.13;;
26151;SDS011;13907;53.154;8.202;2022-08-03T11:02:03;2.05;;;0.55;;
26151;SDS011;13907;53.154;8.202;2022-08-03T11:04:32;0.68;;;0.60;;
26151;SDS011;13907;53.154;8.202;2022-08-03T11:07:18;2.15;;;0.65;;
26151;SDS011;13907;53.154;8.202;2022-08-03T11:09:47;1.90;;;0.55;;
26151;SDS011;13907;53.154;8.202;2022-08-03T11:12:21;1.00;;;0.52;;
26151;SDS011;13907;53.154;8.202;2022-08-03T11:14:48;1.85;;;1.08;;
26151;SDS011;13907;53.154;8.202;2022-08-03T11:17:16;2.50;;;0.80;;
26151;SDS011;13907;53.154;8.202;2022-08-03T11:19:45;2.58;;;0.65;;
26151;SDS011;13907;53.154;8.202;2022-08-03T11:22:12;5.05;;;0.90;;
26151;SDS011;13907;53.154;8.202;2022-08-03T11:24:58;2.60;;;0.68;;
26151;SDS011;13907;53.154;8.202;2022-08-03T11:27:26;7.68;;;1.33;;
26151;SDS011;13907;53.154;8.202;2022-08-03T11:29:54;1.98;;;0.85;;
26151;SDS011;13907;53.154;8.202;2022-08-03T11:35:08;4.70;;;1.20;;
26151;SDS011;13907;53.154;8.202;2022-08-03T11:37:36;4.30;;;0.77;;
26151;SDS011;13907;53.154;8.202;2022-08-03T11:40:33;4.35;;;1.23;;
26151;SDS011;13907;53.154;8.202;2022-08-03T11:43:01;3.63;;;1.00;;
26151;SDS011;13907;53.154;8.202;2022-08-03T11:45:28;8.55;;;1.00;;
26151;SDS011;13907;53.154;8.202;2022-08-03T11:47:56;2.03;;;0.93;;
26151;SDS011;13907;53.154;8.202;2022-08-03T11:50:23;4.80;;;1.15;;
26151;SDS011;13907;53.154;8.202;2022-08-03T11:52:50;5.25;;;0.80;;
26151;SDS011;13907;53.154;8.202;2022-08-03T11:55:18;6.07;;;0.85;;
26151;SDS011;13907;53.154;8.202;2022-08-03T11:57:47;6.97;;;1.13;;
26151;SDS011;13907;53.154;8.202;2022-08-03T12:00:27;4.63;;;1.08;;
26151;SDS011;13907;53.154;8.202;2022-08-03T12:02:58;7.22;;;2.47;;
26151;SDS011;13907;53.154;8.202;2022-08-03T12:05:33;4.30;;;1.45;;
26151;SDS011;13907;53.154;8.202;2022-08-03T12:08:00;1.05;;;0.60;;
26151;SDS011;13907;53.154;8.202;2022-08-03T12:10:27;1.77;;;0.90;;
26151;SDS011;13907;53.154;8.202;2022-08-03T12:12:56;6.13;;;1.55;;
26151;SDS011;13907;53.154;8.202;2022-08-03T12:15:24;3.95;;;1.27;;
26151;SDS011;13907;53.154;8.202;2022-08-03T12:17:51;1.88;;;0.70;;
26151;SDS011;13907;53.154;8.202;2022-08-03T12:20:20;7.85;;;1.13;;
26151;SDS011;13907;53.154;8.202;2022-08-03T12:22:49;3.38;;;0.95;;
26151;SDS011;13907;53.154;8.202;2022-08-03T12:25:20;2.70;;;1.00;;
26151;SDS011;13907;53.154;8.202;2022-08-03T12:27:47;2.67;;;1.23;;
26151;SDS011;13907;53.154;8.202;2022-08-03T12:30:16;6.22;;;1.00;;
26151;SDS011;13907;53.154;8.202;2022-08-03T12:32:43;3.88;;;1.23;;
26151;SDS011;13907;53.154;8.202;2022-08-03T12:35:20;5.68;;;1.45;;
26151;SDS011;13907;53.154;8.202;2022-08-03T12:37:48;1.95;;;0.98;;
26151;SDS011;13907;53.154;8.202;2022-08-03T12:40:15;2.60;;;1.05;;
26151;SDS011;13907;53.154;8.202;2022-08-03T12:42:50;3.95;;;1.20;;
26151;SDS011;13907;53.154;8.202;2022-08-03T12:45:18;3.05;;;0.77;;
26151;SDS011;13907;53.154;8.202;2022-08-03T12:47:49;4.82;;;0.85;;
26151;SDS011;13907;53.154;8.202;2022-08-03T12:50:22;3.20;;;0.75;;
26151;SDS011;13907;53.154;8.202;2022-08-03T12:52:49;5.32;;;1.05;;
26151;SDS011;13907;53.154;8.202;2022-08-03T12:55:18;4.15;;;1.02;;
26151;SDS011;13907;53.154;8.202;2022-08-03T12:57:45;4.68;;;0.70;;
26151;SDS011;13907;53.154;8.202;2022-08-03T13:00:13;6.38;;;1.08;;
26151;SDS011;13907;53.154;8.202;2022-08-03T13:02:42;1.48;;;0.60;;
26151;SDS011;13907;53.154;8.202;2022-08-03T13:05:10;4.53;;;0.93;;
26151;SDS011;13907;53.154;8.202;2022-08-03T13:07:39;1.95;;;0.70;;
26151;SDS011;13907;53.154;8.202;2022-08-03T13:10:07;3.53;;;0.68;;
26151;SDS011;13907;53.154;8.202;2022-08-03T13:12:44;4.72;;;0.75;;
26151;SDS011;13907;53.154;8.202;2022-08-03T13:15:12;2.05;;;0.70;;
26151;SDS011;13907;53.154;8.202;2022-08-03T13:17:39;2.47;;;0.90;;
26151;SDS011;13907;53.154;8.202;2022-08-03T13:20:08;5.50;;;1.13;;
26151;SDS011;13907;53.154;8.202;2022-08-03T13:22:35;2.15;;;0.68;;
26151;SDS011;13907;53.154;8.202;2022-08-03T13:25:02;11.50;;;1.63;;
26151;SDS011;13907;53.154;8.202;2022-08-03T13:27:30;4.30;;;0.95;;
26151;SDS011;13907;53.154;8.202;2022-08-03T13:29:57;4.25;;;0.63;;
26151;SDS011;13907;53.154;8.202;2022-08-03T13:32:24;3.95;;;0.90;;
26151;SDS011;13907;53.154;8.202;2022-08-03T13:34:51;8.15;;;0.98;;
26151;SDS011;13907;53.154;8.202;2022-08-03T13:37:19;4.38;;;0.70;;
26151;SDS011;13907;53.154;8.202;2022-08-03T13:39:47;7.10;;;1.02;;
26151;SDS011;13907;53.154;8.202;2022-08-03T13:42:14;6.60;;;1.05;;
26151;SDS011;13907;53.154;8.202;2022-08-03T13:44:41;4.22;;;0.55;;
26151;SDS011;13907;53.154;8.202;2022-08-03T13:47:08;3.50;;;1.05;;
26151;SDS011;13907;53.154;8.202;2022-08-03T13:49:35;3.95;;;1.48;;
26151;SDS011;13907;53.154;8.202;2022-08-03T13:52:02;4.88;;;0.95;;
26151;SDS011;13907;53.154;8.202;2022-08-03T13:54:31;5.07;;;1.10;;
26151;SDS011;13907;53.154;8.202;2022-08-03T13:56:58;3.58;;;0.60;;
26151;SDS011;13907;53.154;8.202;2022-08-03T13:59:26;6.40;;;1.40;;
26151;SDS011;13907;53.154;8.202;2022-08-03T14:01:53;3.05;;;1.00;;
26151;SDS011;13907;53.154;8.202;2022-08-03T14:04:20;4.78;;;0.60;;
26151;SDS011;13907;53.154;8.202;2022-08-03T14:06:47;3.42;;;0.95;;
26151;SDS011;13907;53.154;8.202;2022-08-03T14:09:14;5.32;;;0.80;;
26151;SDS011;13907;53.154;8.202;2022-08-03T14:11:43;4.55;;;0.70;;
26151;SDS011;13907;53.154;8.202;2022-08-03T14:14:10;5.00;;;1.05;;
26151;SDS011;13907;53.154;8.202;2022-08-03T14:16:38;3.95;;;0.80;;
26151;SDS011;13907;53.154;8.202;2022-08-03T14:19:05;2.58;;;0.85;;
26151;SDS011;13907;53.154;8.202;2022-08-03T14:21:32;5.80;;;1.05;;
26151;SDS011;13907;53.154;8.202;2022-08-03T14:24:00;1.88;;;0.75;;
26151;SDS011;13907;53.154;8.202;2022-08-03T14:26:27;2.72;;;0.85;;
26151;SDS011;13907;53.154;8.202;2022-08-03T14:28:55;7.07;;;1.25;;
26151;SDS011;13907;53.154;8.202;2022-08-03T14:31:22;3.75;;;1.00;;
26151;SDS011;13907;53.154;8.202;2022-08-03T14:33:50;5.78;;;1.00;;
26151;SDS011;13907;53.154;8.202;2022-08-03T14:36:18;4.05;;;1.30;;
26151;SDS011;13907;53.154;8.202;2022-08-03T14:38:45;2.63;;;0.98;;
26151;SDS011;13907;53.154;8.202;2022-08-03T14:41:13;5.15;;;1.08;;
26151;SDS011;13907;53.154;8.202;2022-08-03T14:43:40;3.33;;;0.88;;
26151;SDS011;13907;53.154;8.202;2022-08-03T14:46:08;2.83;;;0.93;;
26151;SDS011;13907;53.154;8.202;2022-08-03T14:48:35;2.13;;;0.75;;
26151;SDS011;13907;53.154;8.202;2022-08-03T14:51:03;3.17;;;0.80;;
26151;SDS011;13907;53.154;8.202;2022-08-03T14:53:30;5.53;;;1.10;;
26151;SDS011;13907;53.154;8.202;2022-08-03T14:55:57;2.60;;;0.80;;
26151;SDS011;13907;53.154;8.202;2022-08-03T14:58:24;5.43;;;0.90;;
26151;SDS011;13907;53.154;8.202;2022-08-03T15:00:52;5.07;;;0.85;;